Terminal Aerodrome Forecast
Issued by NWS

Home | Current Version | Previous Version | Graphics & Text | Print | Product List | Glossary On
Versions: 1 2 3 4 5 6 7 8 9 10 11 12 13
000
FTUS45 KGGW 222320
TAFOLF
TAF
KOLF 222320Z 2300/2324 08016KT P6SM VCSH OVC050
     FM230500 08017KT 6SM -RA OVC035
     FM230600 08016KT 6SM -RA OVC025
     FM230900 07017KT 5SM -RA OVC015
     FM231500 08013KT 4SM -RA OVC008=

USA.gov is the U.S. government's official web portal to all federal, state and local government web resources and services.